sensor_id;sensor_type;location;lat;lon;timestamp;temperature;humidity
65864;SHT30;52639;51.180;20.460;2024-03-08T00:02:19;-6.42;90.39
65864;SHT30;52639;51.180;20.460;2024-03-08T00:06:40;-6.64;89.70
65864;SHT30;52639;51.180;20.460;2024-03-08T00:10:42;-6.71;89.88
65864;SHT30;52639;51.180;20.460;2024-03-08T00:14:43;-6.71;90.10
65864;SHT30;52639;51.180;20.460;2024-03-08T00:18:45;-6.67;90.06
65864;SHT30;52639;51.180;20.460;2024-03-08T00:22:50;-6.68;90.09
65864;SHT30;52639;51.180;20.460;2024-03-08T00:26:51;-6.68;89.95
65864;SHT30;52639;51.180;20.460;2024-03-08T00:30:54;-6.71;90.21
65864;SHT30;52639;51.180;20.460;2024-03-08T00:34:56;-6.68;90.04
65864;SHT30;52639;51.180;20.460;2024-03-08T00:39:01;-6.65;90.44
65864;SHT30;52639;51.180;20.460;2024-03-08T00:43:03;-6.61;90.18
65864;SHT30;52639;51.180;20.460;2024-03-08T00:47:05;-6.58;89.85
65864;SHT30;52639;51.180;20.460;2024-03-08T00:51:07;-6.74;89.69
65864;SHT30;52639;51.180;20.460;2024-03-08T00:55:10;-6.77;89.90
65864;SHT30;52639;51.180;20.460;2024-03-08T00:59:20;-6.89;89.71
65864;SHT30;52639;51.180;20.460;2024-03-08T01:03:22;-6.89;90.03
65864;SHT30;52639;51.180;20.460;2024-03-08T01:07:24;-6.96;89.43
65864;SHT30;52639;51.180;20.460;2024-03-08T01:11:27;-6.91;90.72
65864;SHT30;52639;51.180;20.460;2024-03-08T01:20:00;-6.88;90.42
65864;SHT30;52639;51.180;20.460;2024-03-08T01:24:02;-6.91;90.32
65864;SHT30;52639;51.180;20.460;2024-03-08T01:28:05;-7.01;89.99
65864;SHT30;52639;51.180;20.460;2024-03-08T01:32:07;-7.11;90.07
65864;SHT30;52639;51.180;20.460;2024-03-08T01:36:09;-7.15;90.19
65864;SHT30;52639;51.180;20.460;2024-03-08T01:40:12;-7.22;90.08
65864;SHT30;52639;51.180;20.460;2024-03-08T01:44:15;-7.24;90.25
65864;SHT30;52639;51.180;20.460;2024-03-08T01:48:18;-7.06;90.93
65864;SHT30;52639;51.180;20.460;2024-03-08T01:52:22;-7.03;90.35
65864;SHT30;52639;51.180;20.460;2024-03-08T01:56:25;-7.02;90.25
65864;SHT30;52639;51.180;20.460;2024-03-08T02:00:29;-7.11;90.09
65864;SHT30;52639;51.180;20.460;2024-03-08T02:04:31;-7.16;90.29
65864;SHT30;52639;51.180;20.460;2024-03-08T02:08:33;-7.22;90.42
65864;SHT30;52639;51.180;20.460;2024-03-08T02:12:35;-7.26;90.15
65864;SHT30;52639;51.180;20.460;2024-03-08T02:16:40;-7.32;90.40
65864;SHT30;52639;51.180;20.460;2024-03-08T02:20:43;-7.19;90.73
65864;SHT30;52639;51.180;20.460;2024-03-08T02:24:45;-7.09;90.62
65864;SHT30;52639;51.180;20.460;2024-03-08T02:28:47;-7.13;90.34
65864;SHT30;52639;51.180;20.460;2024-03-08T02:37:29;-7.19;90.49
65864;SHT30;52639;51.180;20.460;2024-03-08T02:41:31;-7.19;90.69
65864;SHT30;52639;51.180;20.460;2024-03-08T02:45:32;-7.19;90.70
65864;SHT30;52639;51.180;20.460;2024-03-08T02:49:35;-7.27;90.14
65864;SHT30;52639;51.180;20.460;2024-03-08T02:53:39;-7.34;90.31
65864;SHT30;52639;51.180;20.460;2024-03-08T02:57:41;-7.37;90.36
65864;SHT30;52639;51.180;20.460;2024-03-08T03:01:44;-7.36;90.18
65864;SHT30;52639;51.180;20.460;2024-03-08T03:05:46;-7.44;90.30
65864;SHT30;52639;51.180;20.460;2024-03-08T03:09:49;-7.43;91.07
65864;SHT30;52639;51.180;20.460;2024-03-08T03:13:51;-7.42;91.03
65864;SHT30;52639;51.180;20.460;2024-03-08T03:18:06;-7.40;90.91
65864;SHT30;52639;51.180;20.460;2024-03-08T03:22:08;-7.37;90.78
65864;SHT30;52639;51.180;20.460;2024-03-08T03:26:12;-7.33;90.65
65864;SHT30;52639;51.180;20.460;2024-03-08T03:30:18;-7.42;90.31
65864;SHT30;52639;51.180;20.460;2024-03-08T03:34:22;-7.53;90.26
65864;SHT30;52639;51.180;20.460;2024-03-08T03:38:24;-7.63;90.47
65864;SHT30;52639;51.180;20.460;2024-03-08T03:47:05;-7.42;91.26
65864;SHT30;52639;51.180;20.460;2024-03-08T03:51:07;-7.48;90.71
65864;SHT30;52639;51.180;20.460;2024-03-08T03:55:10;-7.51;90.54
65864;SHT30;52639;51.180;20.460;2024-03-08T03:59:12;-7.64;90.44
65864;SHT30;52639;51.180;20.460;2024-03-08T04:03:15;-7.70;90.39
65864;SHT30;52639;51.180;20.460;2024-03-08T04:07:18;-7.77;90.48
65864;SHT30;52639;51.180;20.460;2024-03-08T04:11:20;-7.84;90.52
65864;SHT30;52639;51.180;20.460;2024-03-08T04:15:22;-7.88;90.69
65864;SHT30;52639;51.180;20.460;2024-03-08T04:19:25;-7.90;90.87
65864;SHT30;52639;51.180;20.460;2024-03-08T04:23:28;-7.95;90.78
65864;SHT30;52639;51.180;20.460;2024-03-08T04:27:31;-7.98;90.59
65864;SHT30;52639;51.180;20.460;2024-03-08T04:31:33;-8.08;90.95
65864;SHT30;52639;51.180;20.460;2024-03-08T04:35:36;-8.11;90.76
65864;SHT30;52639;51.180;20.460;2024-03-08T04:39:38;-8.11;90.85
65864;SHT30;52639;51.180;20.460;2024-03-08T04:43:40;-8.11;90.75
65864;SHT30;52639;51.180;20.460;2024-03-08T04:47:42;-8.14;90.73
65864;SHT30;52639;51.180;20.460;2024-03-08T04:51:46;-8.18;90.87
65864;SHT30;52639;51.180;20.460;2024-03-08T04:55:48;-8.12;90.97
65864;SHT30;52639;51.180;20.460;2024-03-08T04:59:50;-8.10;91.07
65864;SHT30;52639;51.180;20.460;2024-03-08T05:03:52;-8.12;90.76
65864;SHT30;52639;51.180;20.460;2024-03-08T05:07:57;-8.18;90.98
65864;SHT30;52639;51.180;20.460;2024-03-08T05:11:59;-8.11;90.81
65864;SHT30;52639;51.180;20.460;2024-03-08T05:16:02;-8.00;91.07
65864;SHT30;52639;51.180;20.460;2024-03-08T05:20:04;-7.91;91.04
65864;SHT30;52639;51.180;20.460;2024-03-08T05:24:10;-7.87;90.72
65864;SHT30;52639;51.180;20.460;2024-03-08T05:28:12;-7.74;90.79
65864;SHT30;52639;51.180;20.460;2024-03-08T05:32:13;-7.60;90.96
65864;SHT30;52639;51.180;20.460;2024-03-08T05:36:16;-7.44;90.69
65864;SHT30;52639;51.180;20.460;2024-03-08T05:40:19;-7.24;90.70
65864;SHT30;52639;51.180;20.460;2024-03-08T05:44:21;-7.13;90.42
65864;SHT30;52639;51.180;20.460;2024-03-08T05:48:23;-6.93;90.03
65864;SHT30;52639;51.180;20.460;2024-03-08T05:52:25;-6.77;90.04
65864;SHT30;52639;51.180;20.460;2024-03-08T05:56:29;-6.44;89.88
65864;SHT30;52639;51.180;20.460;2024-03-08T06:00:31;-5.89;89.39
65864;SHT30;52639;51.180;20.460;2024-03-08T06:04:32;-3.75;89.41
65864;SHT30;52639;51.180;20.460;2024-03-08T06:08:34;-2.28;88.02
65864;SHT30;52639;51.180;20.460;2024-03-08T06:12:37;-1.66;85.84
65864;SHT30;52639;51.180;20.460;2024-03-08T06:16:41;-1.29;85.16
65864;SHT30;52639;51.180;20.460;2024-03-08T06:20:43;0.24;82.15
65864;SHT30;52639;51.180;20.460;2024-03-08T06:24:46;1.73;82.07
65864;SHT30;52639;51.180;20.460;2024-03-08T06:28:50;2.80;83.75
65864;SHT30;52639;51.180;20.460;2024-03-08T06:32:52;4.01;74.42
65864;SHT30;52639;51.180;20.460;2024-03-08T06:36:54;4.42;72.72
65864;SHT30;52639;51.180;20.460;2024-03-08T06:41:01;5.39;72.70
65864;SHT30;52639;51.180;20.460;2024-03-08T06:45:21;5.81;73.99
65864;SHT30;52639;51.180;20.460;2024-03-08T06:49:24;5.30;65.94
65864;SHT30;52639;51.180;20.460;2024-03-08T06:53:27;5.76;69.34
65864;SHT30;52639;51.180;20.460;2024-03-08T06:57:29;6.53;66.93
65864;SHT30;52639;51.180;20.460;2024-03-08T07:01:32;6.81;65.80
65864;SHT30;52639;51.180;20.460;2024-03-08T07:05:37;6.84;63.08
65864;SHT30;52639;51.180;20.460;2024-03-08T07:09:46;7.14;63.99
65864;SHT30;52639;51.180;20.460;2024-03-08T07:13:50;7.66;62.23
65864;SHT30;52639;51.180;20.460;2024-03-08T07:17:53;7.72;62.42
65864;SHT30;52639;51.180;20.460;2024-03-08T07:21:55;7.89;63.50
65864;SHT30;52639;51.180;20.460;2024-03-08T07:25:57;7.93;60.82
65864;SHT30;52639;51.180;20.460;2024-03-08T07:29:58;8.71;61.19
65864;SHT30;52639;51.180;20.460;2024-03-08T07:34:03;8.67;61.09
65864;SHT30;52639;51.180;20.460;2024-03-08T07:38:07;9.43;61.97
65864;SHT30;52639;51.180;20.460;2024-03-08T07:42:10;9.53;64.51
65864;SHT30;52639;51.180;20.460;2024-03-08T07:46:12;9.36;63.27
65864;SHT30;52639;51.180;20.460;2024-03-08T07:50:16;9.53;58.69
65864;SHT30;52639;51.180;20.460;2024-03-08T07:54:18;9.16;66.86
65864;SHT30;52639;51.180;20.460;2024-03-08T07:58:20;9.43;68.14
65864;SHT30;52639;51.180;20.460;2024-03-08T08:02:22;9.49;66.98
65864;SHT30;52639;51.180;20.460;2024-03-08T08:06:25;9.66;66.53
65864;SHT30;52639;51.180;20.460;2024-03-08T08:10:27;9.11;66.33
65864;SHT30;52639;51.180;20.460;2024-03-08T08:14:29;9.04;71.00
65864;SHT30;52639;51.180;20.460;2024-03-08T08:18:31;9.95;66.40
65864;SHT30;52639;51.180;20.460;2024-03-08T08:22:35;9.91;64.12
65864;SHT30;52639;51.180;20.460;2024-03-08T08:26:36;9.97;69.08
65864;SHT30;52639;51.180;20.460;2024-03-08T08:30:41;10.30;65.69
65864;SHT30;52639;51.180;20.460;2024-03-08T08:34:43;10.38;54.25
65864;SHT30;52639;51.180;20.460;2024-03-08T08:38:47;10.38;64.03
65864;SHT30;52639;51.180;20.460;2024-03-08T08:42:48;11.80;56.00
65864;SHT30;52639;51.180;20.460;2024-03-08T08:46:50;11.23;52.15
65864;SHT30;52639;51.180;20.460;2024-03-08T08:50:52;11.59;57.89
65864;SHT30;52639;51.180;20.460;2024-03-08T08:54:56;11.94;62.10
65864;SHT30;52639;51.180;20.460;2024-03-08T08:58:58;12.32;55.18
65864;SHT30;52639;51.180;20.460;2024-03-08T09:03:00;12.45;54.99
65864;SHT30;52639;51.180;20.460;2024-03-08T09:07:03;12.07;45.29
65864;SHT30;52639;51.180;20.460;2024-03-08T09:11:08;12.68;51.58
65864;SHT30;52639;51.180;20.460;2024-03-08T09:15:10;12.79;55.02
65864;SHT30;52639;51.180;20.460;2024-03-08T09:19:12;12.99;49.69
65864;SHT30;52639;51.180;20.460;2024-03-08T09:23:14;13.81;53.18
65864;SHT30;52639;51.180;20.460;2024-03-08T09:27:19;12.58;51.72
65864;SHT30;52639;51.180;20.460;2024-03-08T09:31:20;12.70;45.42
65864;SHT30;52639;51.180;20.460;2024-03-08T09:35:22;11.85;42.49
65864;SHT30;52639;51.180;20.460;2024-03-08T09:39:25;12.76;55.22
65864;SHT30;52639;51.180;20.460;2024-03-08T09:43:27;12.72;50.68
65864;SHT30;52639;51.180;20.460;2024-03-08T09:47:31;13.40;45.16
65864;SHT30;52639;51.180;20.460;2024-03-08T09:51:34;12.90;51.30
65864;SHT30;52639;51.180;20.460;2024-03-08T09:55:39;11.64;42.29
65864;SHT30;52639;51.180;20.460;2024-03-08T09:59:44;11.80;44.79
65864;SHT30;52639;51.180;20.460;2024-03-08T10:03:48;13.17;43.60
65864;SHT30;52639;51.180;20.460;2024-03-08T10:07:51;13.51;49.45
65864;SHT30;52639;51.180;20.460;2024-03-08T10:11:53;13.98;52.28
65864;SHT30;52639;51.180;20.460;2024-03-08T10:15:58;13.91;53.51
65864;SHT30;52639;51.180;20.460;2024-03-08T10:24:33;13.57;47.30
65864;SHT30;52639;51.180;20.460;2024-03-08T10:28:35;13.57;44.08
65864;SHT30;52639;51.180;20.460;2024-03-08T10:32:38;13.60;43.98
65864;SHT30;52639;51.180;20.460;2024-03-08T10:36:41;13.44;46.87
65864;SHT30;52639;51.180;20.460;2024-03-08T10:40:43;9.40;47.40
65864;SHT30;52639;51.180;20.460;2024-03-08T10:44:49;8.27;53.00
65864;SHT30;52639;51.180;20.460;2024-03-08T10:48:53;8.18;60.66
65864;SHT30;52639;51.180;20.460;2024-03-08T10:52:57;7.67;53.41
65864;SHT30;52639;51.180;20.460;2024-03-08T10:57:02;7.67;53.48
65864;SHT30;52639;51.180;20.460;2024-03-08T11:01:04;7.56;62.68
65864;SHT30;52639;51.180;20.460;2024-03-08T11:05:09;7.42;55.62
65864;SHT30;52639;51.180;20.460;2024-03-08T11:09:29;6.92;52.80
65864;SHT30;52639;51.180;20.460;2024-03-08T11:13:34;7.16;58.70
65864;SHT30;52639;51.180;20.460;2024-03-08T11:17:40;6.98;56.09
65864;SHT30;52639;51.180;20.460;2024-03-08T11:21:44;7.45;59.80
65864;SHT30;52639;51.180;20.460;2024-03-08T11:25:47;7.25;53.73
65864;SHT30;52639;51.180;20.460;2024-03-08T11:29:59;7.43;58.61
65864;SHT30;52639;51.180;20.460;2024-03-08T11:34:02;7.19;55.96
65864;SHT30;52639;51.180;20.460;2024-03-08T11:38:05;7.08;53.99
65864;SHT30;52639;51.180;20.460;2024-03-08T11:42:08;7.28;60.77
65864;SHT30;52639;51.180;20.460;2024-03-08T11:46:12;7.21;54.97
65864;SHT30;52639;51.180;20.460;2024-03-08T11:50:15;7.28;54.65
65864;SHT30;52639;51.180;20.460;2024-03-08T11:54:20;7.25;52.42
65864;SHT30;52639;51.180;20.460;2024-03-08T11:58:22;7.19;50.15
65864;SHT30;52639;51.180;20.460;2024-03-08T12:02:24;7.35;51.78
65864;SHT30;52639;51.180;20.460;2024-03-08T12:06:35;7.19;53.08
65864;SHT30;52639;51.180;20.460;2024-03-08T12:10:48;7.16;60.12
65864;SHT30;52639;51.180;20.460;2024-03-08T12:14:50;7.21;56.16
65864;SHT30;52639;51.180;20.460;2024-03-08T12:18:52;7.32;48.57
65864;SHT30;52639;51.180;20.460;2024-03-08T12:22:54;7.48;53.78
65864;SHT30;52639;51.180;20.460;2024-03-08T12:26:58;7.21;49.37
65864;SHT30;52639;51.180;20.460;2024-03-08T12:31:00;7.39;49.77
65864;SHT30;52639;51.180;20.460;2024-03-08T12:35:02;7.35;50.72
65864;SHT30;52639;51.180;20.460;2024-03-08T12:39:07;7.19;52.70
65864;SHT30;52639;51.180;20.460;2024-03-08T12:43:14;7.21;51.49
65864;SHT30;52639;51.180;20.460;2024-03-08T12:47:16;7.09;59.07
65864;SHT30;52639;51.180;20.460;2024-03-08T12:51:20;7.11;57.07
65864;SHT30;52639;51.180;20.460;2024-03-08T12:55:22;6.95;48.89
65864;SHT30;52639;51.180;20.460;2024-03-08T12:59:25;7.22;54.40
65864;SHT30;52639;51.180;20.460;2024-03-08T13:03:27;7.25;61.38
65864;SHT30;52639;51.180;20.460;2024-03-08T13:07:29;7.12;57.20
65864;SHT30;52639;51.180;20.460;2024-03-08T13:11:32;6.78;49.44
65864;SHT30;52639;51.180;20.460;2024-03-08T13:15:38;6.81;53.50
65864;SHT30;52639;51.180;20.460;2024-03-08T13:19:42;7.01;53.22
65864;SHT30;52639;51.180;20.460;2024-03-08T13:23:44;6.90;47.94
65864;SHT30;52639;51.180;20.460;2024-03-08T13:27:50;6.94;50.71
65864;SHT30;52639;51.180;20.460;2024-03-08T13:31:53;7.04;55.73
65864;SHT30;52639;51.180;20.460;2024-03-08T13:35:57;7.04;52.36
65864;SHT30;52639;51.180;20.460;2024-03-08T13:40:01;7.19;56.31
65864;SHT30;52639;51.180;20.460;2024-03-08T13:44:06;7.02;48.77
65864;SHT30;52639;51.180;20.460;2024-03-08T13:48:10;7.00;52.34
65864;SHT30;52639;51.180;20.460;2024-03-08T13:52:13;6.98;55.41
65864;SHT30;52639;51.180;20.460;2024-03-08T13:56:15;7.05;55.80
65864;SHT30;52639;51.180;20.460;2024-03-08T14:00:17;7.02;49.65
65864;SHT30;52639;51.180;20.460;2024-03-08T14:04:24;6.84;51.55
65864;SHT30;52639;51.180;20.460;2024-03-08T14:08:27;6.88;51.13
65864;SHT30;52639;51.180;20.460;2024-03-08T14:12:29;7.02;53.15
65864;SHT30;52639;51.180;20.460;2024-03-08T14:16:31;6.97;54.65
65864;SHT30;52639;51.180;20.460;2024-03-08T14:20:34;6.95;53.19
65864;SHT30;52639;51.180;20.460;2024-03-08T14:24:36;6.77;52.34
65864;SHT30;52639;51.180;20.460;2024-03-08T14:28:38;6.74;50.81
65864;SHT30;52639;51.180;20.460;2024-03-08T14:32:53;6.76;54.08
65864;SHT30;52639;51.180;20.460;2024-03-08T14:36:56;6.77;56.51
65864;SHT30;52639;51.180;20.460;2024-03-08T14:40:58;6.58;56.34
65864;SHT30;52639;51.180;20.460;2024-03-08T14:44:59;6.58;58.20
65864;SHT30;52639;51.180;20.460;2024-03-08T14:49:01;6.66;54.71
65864;SHT30;52639;51.180;20.460;2024-03-08T14:53:05;6.51;55.99
65864;SHT30;52639;51.180;20.460;2024-03-08T14:57:07;6.51;54.73
65864;SHT30;52639;51.180;20.460;2024-03-08T15:01:15;6.40;54.77
65864;SHT30;52639;51.180;20.460;2024-03-08T15:05:17;6.41;57.15
65864;SHT30;52639;51.180;20.460;2024-03-08T15:09:23;6.29;56.81
65864;SHT30;52639;51.180;20.460;2024-03-08T15:13:25;6.12;58.01
65864;SHT30;52639;51.180;20.460;2024-03-08T15:21:21;6.03;57.49
65864;SHT30;52639;51.180;20.460;2024-03-08T15:25:26;5.76;57.85
65864;SHT30;52639;51.180;20.460;2024-03-08T15:29:28;5.52;59.47
65864;SHT30;52639;51.180;20.460;2024-03-08T15:33:31;5.56;58.56
65864;SHT30;52639;51.180;20.460;2024-03-08T15:37:34;5.37;59.77
65864;SHT30;52639;51.180;20.460;2024-03-08T15:41:37;5.39;58.21
65864;SHT30;52639;51.180;20.460;2024-03-08T15:45:39;4.93;61.52
65864;SHT30;52639;51.180;20.460;2024-03-08T15:49:52;5.00;62.97
65864;SHT30;52639;51.180;20.460;2024-03-08T15:53:55;4.87;63.41
65864;SHT30;52639;51.180;20.460;2024-03-08T15:57:59;4.69;62.09
65864;SHT30;52639;51.180;20.460;2024-03-08T16:02:01;4.56;62.32
65864;SHT30;52639;51.180;20.460;2024-03-08T16:06:04;4.33;63.47
65864;SHT30;52639;51.180;20.460;2024-03-08T16:10:08;4.03;64.29
65864;SHT30;52639;51.180;20.460;2024-03-08T16:14:12;3.79;65.32
65864;SHT30;52639;51.180;20.460;2024-03-08T16:18:19;3.33;66.48
65864;SHT30;52639;51.180;20.460;2024-03-08T16:22:22;2.77;67.91
65864;SHT30;52639;51.180;20.460;2024-03-08T16:26:25;2.20;69.44
65864;SHT30;52639;51.180;20.460;2024-03-08T16:30:28;1.74;70.90
65864;SHT30;52639;51.180;20.460;2024-03-08T16:34:39;1.32;72.05
65864;SHT30;52639;51.180;20.460;2024-03-08T16:38:41;0.89;73.22
65864;SHT30;52639;51.180;20.460;2024-03-08T16:42:47;0.57;74.12
65864;SHT30;52639;51.180;20.460;2024-03-08T16:46:51;0.28;74.56
65864;SHT30;52639;51.180;20.460;2024-03-08T16:50:53;0.04;75.17
65864;SHT30;52639;51.180;20.460;2024-03-08T16:54:55;-0.27;75.79
65864;SHT30;52639;51.180;20.460;2024-03-08T16:58:59;-0.51;76.24
65864;SHT30;52639;51.180;20.460;2024-03-08T17:03:04;-0.77;76.68
65864;SHT30;52639;51.180;20.460;2024-03-08T17:07:07;-0.96;77.30
65864;SHT30;52639;51.180;20.460;2024-03-08T17:11:09;-1.08;77.41
65864;SHT30;52639;51.180;20.460;2024-03-08T17:15:17;-1.29;77.48
65864;SHT30;52639;51.180;20.460;2024-03-08T17:19:19;-1.39;78.12
65864;SHT30;52639;51.180;20.460;2024-03-08T17:23:33;-1.56;77.98
65864;SHT30;52639;51.180;20.460;2024-03-08T17:27:44;-1.50;78.73
65864;SHT30;52639;51.180;20.460;2024-03-08T17:31:51;-1.62;78.70
65864;SHT30;52639;51.180;20.460;2024-03-08T17:35:53;-1.76;78.95
65864;SHT30;52639;51.180;20.460;2024-03-08T17:39:56;-1.90;79.22
65864;SHT30;52639;51.180;20.460;2024-03-08T17:44:00;-2.00;79.25
65864;SHT30;52639;51.180;20.460;2024-03-08T17:48:03;-2.20;79.54
65864;SHT30;52639;51.180;20.460;2024-03-08T17:52:05;-2.52;80.03
65864;SHT30;52639;51.180;20.460;2024-03-08T17:56:07;-2.59;80.36
65864;SHT30;52639;51.180;20.460;2024-03-08T18:00:10;-2.73;80.59
65864;SHT30;52639;51.180;20.460;2024-03-08T18:04:19;-2.72;81.15
65864;SHT30;52639;51.180;20.460;2024-03-08T18:08:23;-2.68;81.12
65864;SHT30;52639;51.180;20.460;2024-03-08T18:12:24;-2.79;81.22
65864;SHT30;52639;51.180;20.460;2024-03-08T18:16:27;-2.93;81.51
65864;SHT30;52639;51.180;20.460;2024-03-08T18:20:33;-3.03;81.32
65864;SHT30;52639;51.180;20.460;2024-03-08T18:24:42;-3.11;81.72
65864;SHT30;52639;51.180;20.460;2024-03-08T18:28:46;-3.14;81.59
65864;SHT30;52639;51.180;20.460;2024-03-08T18:32:49;-3.17;82.23
65864;SHT30;52639;51.180;20.460;2024-03-08T18:36:53;-3.14;82.57
65864;SHT30;52639;51.180;20.460;2024-03-08T18:40:55;-3.06;83.01
65864;SHT30;52639;51.180;20.460;2024-03-08T18:44:58;-3.03;82.59
65864;SHT30;52639;51.180;20.460;2024-03-08T18:49:00;-2.99;82.60
65864;SHT30;52639;51.180;20.460;2024-03-08T18:53:03;-3.04;82.57
65864;SHT30;52639;51.180;20.460;2024-03-08T18:57:07;-3.13;83.10
65864;SHT30;52639;51.180;20.460;2024-03-08T19:01:09;-3.11;83.07
65864;SHT30;52639;51.180;20.460;2024-03-08T19:05:11;-3.16;83.14
65864;SHT30;52639;51.180;20.460;2024-03-08T19:09:18;-3.29;82.66
65864;SHT30;52639;51.180;20.460;2024-03-08T19:13:20;-3.44;82.89
65864;SHT30;52639;51.180;20.460;2024-03-08T19:17:22;-3.64;82.97
65864;SHT30;52639;51.180;20.460;2024-03-08T19:21:25;-3.72;83.59
65864;SHT30;52639;51.180;20.460;2024-03-08T19:25:30;-3.71;83.51
65864;SHT30;52639;51.180;20.460;2024-03-08T19:29:33;-3.74;83.33
65864;SHT30;52639;51.180;20.460;2024-03-08T19:33:35;-3.61;83.99
65864;SHT30;52639;51.180;20.460;2024-03-08T19:37:37;-3.55;83.62
65864;SHT30;52639;51.180;20.460;2024-03-08T19:41:48;-3.65;83.84
65864;SHT30;52639;51.180;20.460;2024-03-08T19:45:50;-3.64;83.82
65864;SHT30;52639;51.180;20.460;2024-03-08T19:49:53;-3.75;83.53
65864;SHT30;52639;51.180;20.460;2024-03-08T19:53:54;-3.88;84.05
65864;SHT30;52639;51.180;20.460;2024-03-08T19:57:58;-3.79;84.25
65864;SHT30;52639;51.180;20.460;2024-03-08T20:02:00;-3.79;84.15
65864;SHT30;52639;51.180;20.460;2024-03-08T20:06:02;-3.72;84.27
65864;SHT30;52639;51.180;20.460;2024-03-08T20:10:07;-3.82;84.06
65864;SHT30;52639;51.180;20.460;2024-03-08T20:14:12;-3.92;84.26
65864;SHT30;52639;51.180;20.460;2024-03-08T20:18:14;-3.91;84.66
65864;SHT30;52639;51.180;20.460;2024-03-08T20:22:16;-3.85;84.46
65864;SHT30;52639;51.180;20.460;2024-03-08T20:26:19;-3.91;84.62
65864;SHT30;52639;51.180;20.460;2024-03-08T20:30:25;-3.99;84.97
65864;SHT30;52639;51.180;20.460;2024-03-08T20:34:27;-4.01;84.83
65864;SHT30;52639;51.180;20.460;2024-03-08T20:38:29;-4.01;84.61
65864;SHT30;52639;51.180;20.460;2024-03-08T20:42:32;-4.05;84.70
65864;SHT30;52639;51.180;20.460;2024-03-08T20:46:47;-4.15;84.95
65864;SHT30;52639;51.180;20.460;2024-03-08T20:50:49;-4.13;85.10
65864;SHT30;52639;51.180;20.460;2024-03-08T20:55:01;-4.13;85.13
65864;SHT30;52639;51.180;20.460;2024-03-08T20:59:40;-4.18;84.73
65864;SHT30;52639;51.180;20.460;2024-03-08T21:03:43;-4.29;84.75
65864;SHT30;52639;51.180;20.460;2024-03-08T21:07:46;-4.34;84.82
65864;SHT30;52639;51.180;20.460;2024-03-08T21:11:49;-4.42;85.75
65864;SHT30;52639;51.180;20.460;2024-03-08T21:15:52;-4.45;85.64
65864;SHT30;52639;51.180;20.460;2024-03-08T21:19:55;-4.63;85.24
65864;SHT30;52639;51.180;20.460;2024-03-08T21:23:57;-4.71;85.77
65864;SHT30;52639;51.180;20.460;2024-03-08T21:28:00;-4.83;86.05
65864;SHT30;52639;51.180;20.460;2024-03-08T21:32:03;-4.71;86.40
65864;SHT30;52639;51.180;20.460;2024-03-08T21:36:08;-4.59;85.99
65864;SHT30;52639;51.180;20.460;2024-03-08T21:40:11;-4.66;85.59
65864;SHT30;52639;51.180;20.460;2024-03-08T21:44:21;-4.69;85.63
65864;SHT30;52639;51.180;20.460;2024-03-08T21:48:23;-4.94;86.01
65864;SHT30;52639;51.180;20.460;2024-03-08T21:52:27;-4.98;86.10
65864;SHT30;52639;51.180;20.460;2024-03-08T21:56:31;-5.04;86.79
65864;SHT30;52639;51.180;20.460;2024-03-08T22:00:32;-5.07;86.76
65864;SHT30;52639;51.180;20.460;2024-03-08T22:04:37;-5.22;86.78
65864;SHT30;52639;51.180;20.460;2024-03-08T22:08:39;-5.18;86.92
65864;SHT30;52639;51.180;20.460;2024-03-08T22:12:42;-5.18;86.82
65864;SHT30;52639;51.180;20.460;2024-03-08T22:16:44;-5.27;86.79
65864;SHT30;52639;51.180;20.460;2024-03-08T22:20:48;-5.31;86.68
65864;SHT30;52639;51.180;20.460;2024-03-08T22:24:54;-5.24;87.10
65864;SHT30;52639;51.180;20.460;2024-03-08T22:28:56;-5.11;87.14
65864;SHT30;52639;51.180;20.460;2024-03-08T22:32:58;-5.09;87.32
65864;SHT30;52639;51.180;20.460;2024-03-08T22:37:00;-5.11;86.90
65864;SHT30;52639;51.180;20.460;2024-03-08T22:41:14;-5.19;86.72
65864;SHT30;52639;51.180;20.460;2024-03-08T22:45:16;-5.05;87.06
65864;SHT30;52639;51.180;20.460;2024-03-08T22:49:20;-5.03;87.36
65864;SHT30;52639;51.180;20.460;2024-03-08T22:53:26;-5.19;87.30
65864;SHT30;52639;51.180;20.460;2024-03-08T22:57:30;-5.27;87.61
65864;SHT30;52639;51.180;20.460;2024-03-08T23:01:32;-5.48;86.99
65864;SHT30;52639;51.180;20.460;2024-03-08T23:05:34;-5.62;87.27
65864;SHT30;52639;51.180;20.460;2024-03-08T23:09:38;-5.56;87.52
65864;SHT30;52639;51.180;20.460;2024-03-08T23:13:44;-5.49;87.14
65864;SHT30;52639;51.180;20.460;2024-03-08T23:17:47;-5.52;87.31
65864;SHT30;52639;51.180;20.460;2024-03-08T23:21:50;-5.46;87.27
65864;SHT30;52639;51.180;20.460;2024-03-08T23:25:52;-5.46;87.36
65864;SHT30;52639;51.180;20.460;2024-03-08T23:29:55;-5.38;87.53
65864;SHT30;52639;51.180;20.460;2024-03-08T23:33:58;-5.40;87.48
65864;SHT30;52639;51.180;20.460;2024-03-08T23:38:00;-5.31;87.49
65864;SHT30;52639;51.180;20.460;2024-03-08T23:42:02;-5.29;87.17
65864;SHT30;52639;51.180;20.460;2024-03-08T23:46:06;-5.11;87.31
65864;SHT30;52639;51.180;20.460;2024-03-08T23:50:08;-5.08;86.95
65864;SHT30;52639;51.180;20.460;2024-03-08T23:54:10;-5.15;87.17
65864;SHT30;52639;51.180;20.460;2024-03-08T23:58:13;-5.21;86.77
